sensor_id;sensor_type;location;lat;lon;timestamp;P1;durP1;ratioP1;P2;durP2;ratioP2
23370;SDS011;11858;51.056;3.712;2022-09-02T00:01:34;18.58;;;16.15;;
23370;SDS011;11858;51.056;3.712;2022-09-02T00:04:09;19.52;;;16.27;;
23370;SDS011;11858;51.056;3.712;2022-09-02T00:06:39;20.05;;;16.98;;
23370;SDS011;11858;51.056;3.712;2022-09-02T00:09:09;18.42;;;16.55;;
23370;SDS011;11858;51.056;3.712;2022-09-02T00:11:37;18.42;;;16.52;;
23370;SDS011;11858;51.056;3.712;2022-09-02T00:14:08;18.63;;;16.63;;
23370;SDS011;11858;51.056;3.712;2022-09-02T00:16:38;19.65;;;17.85;;
23370;SDS011;11858;51.056;3.712;2022-09-02T00:19:05;20.00;;;18.20;;
23370;SDS011;11858;51.056;3.712;2022-09-02T00:21:34;21.30;;;18.77;;
23370;SDS011;11858;51.056;3.712;2022-09-02T00:24:01;20.00;;;17.85;;
23370;SDS011;11858;51.056;3.712;2022-09-02T00:26:32;20.50;;;18.55;;
23370;SDS011;11858;51.056;3.712;2022-09-02T00:28:58;20.25;;;18.05;;
23370;SDS011;11858;51.056;3.712;2022-09-02T00:31:26;19.35;;;17.38;;
23370;SDS011;11858;51.056;3.712;2022-09-02T00:33:53;19.27;;;17.50;;
23370;SDS011;11858;51.056;3.712;2022-09-02T00:36:25;19.45;;;17.63;;
23370;SDS011;11858;51.056;3.712;2022-09-02T00:38:51;19.25;;;17.13;;
23370;SDS011;11858;51.056;3.712;2022-09-02T00:41:18;19.17;;;17.42;;
23370;SDS011;11858;51.056;3.712;2022-09-02T00:43:51;19.13;;;16.83;;
23370;SDS011;11858;51.056;3.712;2022-09-02T00:46:21;20.38;;;18.25;;
23370;SDS011;11858;51.056;3.712;2022-09-02T00:49:06;20.25;;;18.10;;
23370;SDS011;11858;51.056;3.712;2022-09-02T00:51:50;19.85;;;17.67;;
23370;SDS011;11858;51.056;3.712;2022-09-02T00:54:46;20.95;;;17.13;;
23370;SDS011;11858;51.056;3.712;2022-09-02T00:57:16;19.83;;;17.80;;
23370;SDS011;11858;51.056;3.712;2022-09-02T00:59:57;19.42;;;17.52;;
23370;SDS011;11858;51.056;3.712;2022-09-02T01:02:48;19.33;;;17.73;;
23370;SDS011;11858;51.056;3.712;2022-09-02T01:05:18;20.25;;;18.42;;
23370;SDS011;11858;51.056;3.712;2022-09-02T01:07:48;19.63;;;17.77;;
23370;SDS011;11858;51.056;3.712;2022-09-02T01:10:33;19.55;;;17.85;;
23370;SDS011;11858;51.056;3.712;2022-09-02T01:13:02;19.27;;;17.27;;
23370;SDS011;11858;51.056;3.712;2022-09-02T01:15:32;18.88;;;17.10;;
23370;SDS011;11858;51.056;3.712;2022-09-02T01:18:01;18.90;;;16.90;;
23370;SDS011;11858;51.056;3.712;2022-09-02T01:20:36;20.40;;;17.98;;
23370;SDS011;11858;51.056;3.712;2022-09-02T01:23:08;18.17;;;16.67;;
23370;SDS011;11858;51.056;3.712;2022-09-02T01:25:35;19.00;;;17.17;;
23370;SDS011;11858;51.056;3.712;2022-09-02T01:28:05;21.42;;;17.33;;
23370;SDS011;11858;51.056;3.712;2022-09-02T01:30:34;22.25;;;18.08;;
23370;SDS011;11858;51.056;3.712;2022-09-02T01:33:01;19.42;;;17.45;;
23370;SDS011;11858;51.056;3.712;2022-09-02T01:35:29;19.20;;;17.50;;
23370;SDS011;11858;51.056;3.712;2022-09-02T01:37:55;20.35;;;18.58;;
23370;SDS011;11858;51.056;3.712;2022-09-02T01:40:24;22.40;;;17.60;;
23370;SDS011;11858;51.056;3.712;2022-09-02T01:42:55;19.77;;;17.75;;
23370;SDS011;11858;51.056;3.712;2022-09-02T01:45:24;20.95;;;18.77;;
23370;SDS011;11858;51.056;3.712;2022-09-02T01:47:57;20.45;;;18.20;;
23370;SDS011;11858;51.056;3.712;2022-09-02T01:50:23;27.17;;;18.08;;
23370;SDS011;11858;51.056;3.712;2022-09-02T01:52:50;21.35;;;18.00;;
23370;SDS011;11858;51.056;3.712;2022-09-02T01:55:16;25.80;;;17.65;;
23370;SDS011;11858;51.056;3.712;2022-09-02T01:57:42;18.77;;;16.88;;
23370;SDS011;11858;51.056;3.712;2022-09-02T02:00:09;18.55;;;16.60;;
23370;SDS011;11858;51.056;3.712;2022-09-02T02:02:39;24.48;;;18.50;;
23370;SDS011;11858;51.056;3.712;2022-09-02T02:05:05;19.88;;;17.42;;
23370;SDS011;11858;51.056;3.712;2022-09-02T02:07:34;21.17;;;18.58;;
23370;SDS011;11858;51.056;3.712;2022-09-02T02:10:03;19.52;;;17.77;;
23370;SDS011;11858;51.056;3.712;2022-09-02T02:12:29;20.25;;;18.23;;
23370;SDS011;11858;51.056;3.712;2022-09-02T02:14:56;23.98;;;19.17;;
23370;SDS011;11858;51.056;3.712;2022-09-02T02:17:26;21.02;;;18.92;;
23370;SDS011;11858;51.056;3.712;2022-09-02T02:19:52;20.90;;;18.70;;
23370;SDS011;11858;51.056;3.712;2022-09-02T02:22:18;21.40;;;18.88;;
23370;SDS011;11858;51.056;3.712;2022-09-02T02:24:44;21.27;;;19.17;;
23370;SDS011;11858;51.056;3.712;2022-09-02T02:27:10;22.55;;;19.50;;
23370;SDS011;11858;51.056;3.712;2022-09-02T02:29:36;21.98;;;19.75;;
23370;SDS011;11858;51.056;3.712;2022-09-02T02:32:02;21.48;;;19.17;;
23370;SDS011;11858;51.056;3.712;2022-09-02T02:34:28;21.92;;;19.23;;
23370;SDS011;11858;51.056;3.712;2022-09-02T02:36:53;27.40;;;20.00;;
23370;SDS011;11858;51.056;3.712;2022-09-02T02:39:19;23.13;;;20.15;;
23370;SDS011;11858;51.056;3.712;2022-09-02T02:41:45;22.00;;;19.77;;
23370;SDS011;11858;51.056;3.712;2022-09-02T02:44:11;24.77;;;19.48;;
23370;SDS011;11858;51.056;3.712;2022-09-02T02:46:37;21.77;;;19.55;;
23370;SDS011;11858;51.056;3.712;2022-09-02T02:49:03;22.65;;;20.20;;
23370;SDS011;11858;51.056;3.712;2022-09-02T02:51:31;22.35;;;19.58;;
23370;SDS011;11858;51.056;3.712;2022-09-02T02:54:00;22.60;;;20.27;;
23370;SDS011;11858;51.056;3.712;2022-09-02T02:56:28;21.83;;;19.65;;
23370;SDS011;11858;51.056;3.712;2022-09-02T02:58:56;23.40;;;19.40;;
23370;SDS011;11858;51.056;3.712;2022-09-02T03:01:25;30.05;;;19.42;;
23370;SDS011;11858;51.056;3.712;2022-09-02T03:03:52;26.85;;;24.30;;
23370;SDS011;11858;51.056;3.712;2022-09-02T03:06:18;26.83;;;24.00;;
23370;SDS011;11858;51.056;3.712;2022-09-02T03:08:44;26.02;;;23.17;;
23370;SDS011;11858;51.056;3.712;2022-09-02T03:11:10;25.13;;;22.77;;
23370;SDS011;11858;51.056;3.712;2022-09-02T03:13:36;24.88;;;22.63;;
23370;SDS011;11858;51.056;3.712;2022-09-02T03:16:04;24.10;;;21.77;;
23370;SDS011;11858;51.056;3.712;2022-09-02T03:18:30;25.10;;;22.83;;
23370;SDS011;11858;51.056;3.712;2022-09-02T03:20:57;26.73;;;24.00;;
23370;SDS011;11858;51.056;3.712;2022-09-02T03:23:24;25.27;;;22.83;;
23370;SDS011;11858;51.056;3.712;2022-09-02T03:25:50;24.75;;;22.25;;
23370;SDS011;11858;51.056;3.712;2022-09-02T03:28:18;24.70;;;22.23;;
23370;SDS011;11858;51.056;3.712;2022-09-02T03:30:44;31.20;;;23.13;;
23370;SDS011;11858;51.056;3.712;2022-09-02T03:33:12;26.00;;;23.30;;
23370;SDS011;11858;51.056;3.712;2022-09-02T03:35:39;24.95;;;22.85;;
23370;SDS011;11858;51.056;3.712;2022-09-02T03:38:07;24.65;;;22.35;;
23370;SDS011;11858;51.056;3.712;2022-09-02T03:40:34;25.30;;;22.98;;
23370;SDS011;11858;51.056;3.712;2022-09-02T03:43:01;30.73;;;22.45;;
23370;SDS011;11858;51.056;3.712;2022-09-02T03:45:28;26.63;;;22.75;;
23370;SDS011;11858;51.056;3.712;2022-09-02T03:47:55;25.65;;;22.98;;
23370;SDS011;11858;51.056;3.712;2022-09-02T03:50:26;25.15;;;23.05;;
23370;SDS011;11858;51.056;3.712;2022-09-02T03:52:58;27.10;;;24.40;;
23370;SDS011;11858;51.056;3.712;2022-09-02T03:55:25;25.38;;;22.98;;
23370;SDS011;11858;51.056;3.712;2022-09-02T03:57:51;26.85;;;23.92;;
23370;SDS011;11858;51.056;3.712;2022-09-02T04:00:18;31.35;;;20.77;;
23370;SDS011;11858;51.056;3.712;2022-09-02T04:03:05;22.58;;;20.48;;
23370;SDS011;11858;51.056;3.712;2022-09-02T04:05:32;21.95;;;19.75;;
23370;SDS011;11858;51.056;3.712;2022-09-02T04:08:00;21.95;;;19.77;;
23370;SDS011;11858;51.056;3.712;2022-09-02T04:10:28;23.40;;;19.50;;
23370;SDS011;11858;51.056;3.712;2022-09-02T04:12:54;20.85;;;18.77;;
23370;SDS011;11858;51.056;3.712;2022-09-02T04:15:21;21.80;;;19.08;;
23370;SDS011;11858;51.056;3.712;2022-09-02T04:17:47;20.50;;;18.40;;
23370;SDS011;11858;51.056;3.712;2022-09-02T04:20:13;21.48;;;18.38;;
23370;SDS011;11858;51.056;3.712;2022-09-02T04:22:43;22.17;;;18.33;;
23370;SDS011;11858;51.056;3.712;2022-09-02T04:25:09;23.10;;;18.30;;
23370;SDS011;11858;51.056;3.712;2022-09-02T04:27:36;23.95;;;18.92;;
23370;SDS011;11858;51.056;3.712;2022-09-02T04:30:02;20.48;;;18.05;;
23370;SDS011;11858;51.056;3.712;2022-09-02T04:32:30;20.58;;;18.60;;
23370;SDS011;11858;51.056;3.712;2022-09-02T04:34:56;23.73;;;19.50;;
23370;SDS011;11858;51.056;3.712;2022-09-02T04:37:29;21.50;;;19.48;;
23370;SDS011;11858;51.056;3.712;2022-09-02T04:39:57;21.08;;;18.30;;
23370;SDS011;11858;51.056;3.712;2022-09-02T04:42:22;25.30;;;19.77;;
23370;SDS011;11858;51.056;3.712;2022-09-02T04:44:49;22.00;;;19.73;;
23370;SDS011;11858;51.056;3.712;2022-09-02T04:47:19;21.60;;;18.98;;
23370;SDS011;11858;51.056;3.712;2022-09-02T04:49:49;21.63;;;19.40;;
23370;SDS011;11858;51.056;3.712;2022-09-02T04:52:15;21.23;;;18.30;;
23370;SDS011;11858;51.056;3.712;2022-09-02T04:54:41;23.98;;;18.90;;
23370;SDS011;11858;51.056;3.712;2022-09-02T04:57:07;23.67;;;18.90;;
23370;SDS011;11858;51.056;3.712;2022-09-02T04:59:35;22.75;;;18.85;;
23370;SDS011;11858;51.056;3.712;2022-09-02T05:02:02;24.83;;;17.40;;
23370;SDS011;11858;51.056;3.712;2022-09-02T05:04:30;29.13;;;18.73;;
23370;SDS011;11858;51.056;3.712;2022-09-02T05:06:57;21.17;;;18.45;;
23370;SDS011;11858;51.056;3.712;2022-09-02T05:09:27;20.58;;;18.45;;
23370;SDS011;11858;51.056;3.712;2022-09-02T05:11:54;25.80;;;17.40;;
23370;SDS011;11858;51.056;3.712;2022-09-02T05:14:23;22.92;;;17.92;;
23370;SDS011;11858;51.056;3.712;2022-09-02T05:16:50;19.58;;;17.75;;
23370;SDS011;11858;51.056;3.712;2022-09-02T05:19:22;21.83;;;17.58;;
23370;SDS011;11858;51.056;3.712;2022-09-02T05:21:49;20.30;;;17.98;;
23370;SDS011;11858;51.056;3.712;2022-09-02T05:24:21;22.70;;;17.23;;
23370;SDS011;11858;51.056;3.712;2022-09-02T05:26:49;20.48;;;17.63;;
23370;SDS011;11858;51.056;3.712;2022-09-02T05:29:17;19.98;;;17.33;;
23370;SDS011;11858;51.056;3.712;2022-09-02T05:31:45;23.08;;;16.80;;
23370;SDS011;11858;51.056;3.712;2022-09-02T05:34:11;19.17;;;17.25;;
23370;SDS011;11858;51.056;3.712;2022-09-02T05:36:38;19.95;;;16.85;;
23370;SDS011;11858;51.056;3.712;2022-09-02T05:39:04;19.20;;;16.83;;
23370;SDS011;11858;51.056;3.712;2022-09-02T05:41:30;21.25;;;16.05;;
23370;SDS011;11858;51.056;3.712;2022-09-02T05:43:58;25.88;;;16.35;;
23370;SDS011;11858;51.056;3.712;2022-09-02T05:46:25;21.58;;;16.75;;
23370;SDS011;11858;51.056;3.712;2022-09-02T05:48:52;24.33;;;17.08;;
23370;SDS011;11858;51.056;3.712;2022-09-02T05:54:29;20.02;;;17.92;;
23370;SDS011;11858;51.056;3.712;2022-09-02T05:56:59;19.90;;;16.92;;
23370;SDS011;11858;51.056;3.712;2022-09-02T05:59:28;21.92;;;18.08;;
23370;SDS011;11858;51.056;3.712;2022-09-02T06:01:59;24.85;;;17.55;;
23370;SDS011;11858;51.056;3.712;2022-09-02T06:04:25;19.42;;;17.40;;
23370;SDS011;11858;51.056;3.712;2022-09-02T06:06:51;18.58;;;16.63;;
23370;SDS011;11858;51.056;3.712;2022-09-02T06:09:18;22.13;;;17.45;;
23370;SDS011;11858;51.056;3.712;2022-09-02T06:11:47;18.55;;;16.33;;
23370;SDS011;11858;51.056;3.712;2022-09-02T06:14:19;19.42;;;17.25;;
23370;SDS011;11858;51.056;3.712;2022-09-02T06:16:53;18.77;;;16.88;;
23370;SDS011;11858;51.056;3.712;2022-09-02T06:19:22;19.75;;;17.55;;
23370;SDS011;11858;51.056;3.712;2022-09-02T06:21:56;25.38;;;16.45;;
23370;SDS011;11858;51.056;3.712;2022-09-02T06:24:22;18.92;;;15.65;;
23370;SDS011;11858;51.056;3.712;2022-09-02T06:26:50;18.02;;;16.33;;
23370;SDS011;11858;51.056;3.712;2022-09-02T06:29:17;24.15;;;17.63;;
23370;SDS011;11858;51.056;3.712;2022-09-02T06:31:45;23.63;;;16.27;;
23370;SDS011;11858;51.056;3.712;2022-09-02T06:34:13;18.67;;;16.55;;
23370;SDS011;11858;51.056;3.712;2022-09-02T06:36:41;58.88;;;35.58;;
23370;SDS011;11858;51.056;3.712;2022-09-02T06:39:12;19.30;;;17.38;;
23370;SDS011;11858;51.056;3.712;2022-09-02T06:41:40;22.92;;;17.63;;
23370;SDS011;11858;51.056;3.712;2022-09-02T06:44:08;23.25;;;17.20;;
23370;SDS011;11858;51.056;3.712;2022-09-02T06:46:37;18.27;;;16.30;;
23370;SDS011;11858;51.056;3.712;2022-09-02T06:49:05;25.23;;;17.70;;
23370;SDS011;11858;51.056;3.712;2022-09-02T06:51:35;22.95;;;17.73;;
23370;SDS011;11858;51.056;3.712;2022-09-02T06:54:05;20.48;;;17.25;;
23370;SDS011;11858;51.056;3.712;2022-09-02T06:56:33;17.70;;;15.88;;
23370;SDS011;11858;51.056;3.712;2022-09-02T06:58:59;28.63;;;16.80;;
23370;SDS011;11858;51.056;3.712;2022-09-02T07:01:29;17.95;;;16.15;;
23370;SDS011;11858;51.056;3.712;2022-09-02T07:03:58;19.17;;;17.20;;
23370;SDS011;11858;51.056;3.712;2022-09-02T07:06:45;24.58;;;17.60;;
23370;SDS011;11858;51.056;3.712;2022-09-02T07:09:14;26.13;;;17.57;;
23370;SDS011;11858;51.056;3.712;2022-09-02T07:11:41;19.45;;;17.45;;
23370;SDS011;11858;51.056;3.712;2022-09-02T07:14:11;22.40;;;17.73;;
23370;SDS011;11858;51.056;3.712;2022-09-02T07:16:43;19.52;;;17.25;;
23370;SDS011;11858;51.056;3.712;2022-09-02T07:19:15;22.83;;;17.13;;
23370;SDS011;11858;51.056;3.712;2022-09-02T07:21:41;20.88;;;18.00;;
23370;SDS011;11858;51.056;3.712;2022-09-02T07:24:08;27.40;;;17.58;;
23370;SDS011;11858;51.056;3.712;2022-09-02T07:26:35;20.48;;;16.52;;
23370;SDS011;11858;51.056;3.712;2022-09-02T07:29:02;20.50;;;16.80;;
23370;SDS011;11858;51.056;3.712;2022-09-02T07:31:32;18.58;;;16.85;;
23370;SDS011;11858;51.056;3.712;2022-09-02T07:34:09;19.52;;;17.20;;
23370;SDS011;11858;51.056;3.712;2022-09-02T07:36:37;22.92;;;16.85;;
23370;SDS011;11858;51.056;3.712;2022-09-02T07:39:04;21.48;;;17.63;;
23370;SDS011;11858;51.056;3.712;2022-09-02T07:41:32;17.55;;;15.98;;
23370;SDS011;11858;51.056;3.712;2022-09-02T07:43:58;19.92;;;17.27;;
23370;SDS011;11858;51.056;3.712;2022-09-02T07:46:24;23.90;;;17.48;;
23370;SDS011;11858;51.056;3.712;2022-09-02T07:48:50;20.40;;;17.35;;
23370;SDS011;11858;51.056;3.712;2022-09-02T07:51:18;20.35;;;16.90;;
23370;SDS011;11858;51.056;3.712;2022-09-02T07:53:44;20.17;;;16.77;;
23370;SDS011;11858;51.056;3.712;2022-09-02T07:56:11;18.35;;;16.55;;
23370;SDS011;11858;51.056;3.712;2022-09-02T07:58:39;18.80;;;16.92;;
23370;SDS011;11858;51.056;3.712;2022-09-02T08:01:05;17.88;;;16.27;;
23370;SDS011;11858;51.056;3.712;2022-09-02T08:03:32;21.63;;;16.88;;
23370;SDS011;11858;51.056;3.712;2022-09-02T08:05:57;17.05;;;15.65;;
23370;SDS011;11858;51.056;3.712;2022-09-02T08:08:24;20.25;;;15.63;;
23370;SDS011;11858;51.056;3.712;2022-09-02T08:10:52;17.58;;;15.90;;
23370;SDS011;11858;51.056;3.712;2022-09-02T08:13:18;17.30;;;15.60;;
23370;SDS011;11858;51.056;3.712;2022-09-02T08:15:47;20.08;;;15.40;;
23370;SDS011;11858;51.056;3.712;2022-09-02T08:18:13;17.00;;;15.32;;
23370;SDS011;11858;51.056;3.712;2022-09-02T08:20:38;20.95;;;16.10;;
23370;SDS011;11858;51.056;3.712;2022-09-02T08:23:05;16.83;;;15.10;;
23370;SDS011;11858;51.056;3.712;2022-09-02T08:25:32;17.48;;;15.57;;
23370;SDS011;11858;51.056;3.712;2022-09-02T08:27:58;19.10;;;14.55;;
23370;SDS011;11858;51.056;3.712;2022-09-02T08:30:24;19.98;;;16.15;;
23370;SDS011;11858;51.056;3.712;2022-09-02T08:32:53;16.77;;;14.35;;
23370;SDS011;11858;51.056;3.712;2022-09-02T08:35:22;16.05;;;14.55;;
23370;SDS011;11858;51.056;3.712;2022-09-02T08:37:48;15.95;;;14.55;;
23370;SDS011;11858;51.056;3.712;2022-09-02T08:40:16;22.42;;;14.75;;
23370;SDS011;11858;51.056;3.712;2022-09-02T08:45:23;17.20;;;14.18;;
23370;SDS011;11858;51.056;3.712;2022-09-02T08:48:06;16.90;;;13.57;;
23370;SDS011;11858;51.056;3.712;2022-09-02T08:50:41;20.17;;;13.52;;
23370;SDS011;11858;51.056;3.712;2022-09-02T08:53:21;14.53;;;13.00;;
23370;SDS011;11858;51.056;3.712;2022-09-02T08:56:10;17.58;;;13.35;;
23370;SDS011;11858;51.056;3.712;2022-09-02T08:58:41;17.05;;;12.90;;
23370;SDS011;11858;51.056;3.712;2022-09-02T09:01:31;16.30;;;12.65;;
23370;SDS011;11858;51.056;3.712;2022-09-02T09:21:20;13.75;;;12.38;;
23370;SDS011;11858;51.056;3.712;2022-09-02T09:23:45;15.95;;;12.80;;
23370;SDS011;11858;51.056;3.712;2022-09-02T09:26:16;14.85;;;13.38;;
23370;SDS011;11858;51.056;3.712;2022-09-02T09:28:48;14.55;;;12.68;;
23370;SDS011;11858;51.056;3.712;2022-09-02T09:31:22;16.20;;;13.02;;
23370;SDS011;11858;51.056;3.712;2022-09-02T09:34:14;15.80;;;12.75;;
23370;SDS011;11858;51.056;3.712;2022-09-02T09:39:18;15.73;;;12.90;;
23370;SDS011;11858;51.056;3.712;2022-09-02T09:41:45;14.23;;;12.77;;
23370;SDS011;11858;51.056;3.712;2022-09-02T09:47:07;18.77;;;13.00;;
23370;SDS011;11858;51.056;3.712;2022-09-02T09:49:35;14.73;;;12.77;;
23370;SDS011;11858;51.056;3.712;2022-09-02T09:52:01;13.45;;;12.25;;
23370;SDS011;11858;51.056;3.712;2022-09-02T09:54:27;14.07;;;12.85;;
23370;SDS011;11858;51.056;3.712;2022-09-02T09:56:53;13.65;;;12.55;;
23370;SDS011;11858;51.056;3.712;2022-09-02T09:59:32;14.38;;;12.10;;
23370;SDS011;11858;51.056;3.712;2022-09-02T10:02:44;19.33;;;12.75;;
23370;SDS011;11858;51.056;3.712;2022-09-02T10:07:56;14.38;;;12.70;;
23370;SDS011;11858;51.056;3.712;2022-09-02T10:10:23;14.93;;;12.25;;
23370;SDS011;11858;51.056;3.712;2022-09-02T10:12:51;15.90;;;12.82;;
23370;SDS011;11858;51.056;3.712;2022-09-02T10:15:37;14.38;;;11.70;;
23370;SDS011;11858;51.056;3.712;2022-09-02T10:26:39;18.75;;;13.93;;
23370;SDS011;11858;51.056;3.712;2022-09-02T10:37:23;17.70;;;13.25;;
23370;SDS011;11858;51.056;3.712;2022-09-02T10:50:43;13.88;;;12.70;;
23370;SDS011;11858;51.056;3.712;2022-09-02T10:56:24;14.77;;;13.57;;
23370;SDS011;11858;51.056;3.712;2022-09-02T10:59:03;15.15;;;13.93;;
23370;SDS011;11858;51.056;3.712;2022-09-02T11:02:12;14.20;;;13.00;;
23370;SDS011;11858;51.056;3.712;2022-09-02T11:04:49;13.48;;;12.55;;
23370;SDS011;11858;51.056;3.712;2022-09-02T11:07:40;13.88;;;12.68;;
23370;SDS011;11858;51.056;3.712;2022-09-02T11:13:04;13.73;;;12.52;;
23370;SDS011;11858;51.056;3.712;2022-09-02T11:20:58;13.73;;;12.52;;
23370;SDS011;11858;51.056;3.712;2022-09-02T11:23:51;17.20;;;12.10;;
23370;SDS011;11858;51.056;3.712;2022-09-02T11:35:25;15.55;;;12.80;;
23370;SDS011;11858;51.056;3.712;2022-09-02T11:38:03;12.35;;;11.35;;
23370;SDS011;11858;51.056;3.712;2022-09-02T11:43:18;12.68;;;11.75;;
23370;SDS011;11858;51.056;3.712;2022-09-02T11:48:44;13.20;;;12.10;;
23370;SDS011;11858;51.056;3.712;2022-09-02T11:54:44;12.50;;;11.40;;
23370;SDS011;11858;51.056;3.712;2022-09-02T11:57:14;13.07;;;11.88;;
23370;SDS011;11858;51.056;3.712;2022-09-02T12:02:38;12.50;;;11.60;;
23370;SDS011;11858;51.056;3.712;2022-09-02T12:07:57;12.75;;;11.85;;
23370;SDS011;11858;51.056;3.712;2022-09-02T12:21:33;14.18;;;12.70;;
23370;SDS011;11858;51.056;3.712;2022-09-02T12:24:27;13.02;;;11.93;;
23370;SDS011;11858;51.056;3.712;2022-09-02T12:27:18;13.40;;;12.00;;
23370;SDS011;11858;51.056;3.712;2022-09-02T12:29:48;13.30;;;12.20;;
23370;SDS011;11858;51.056;3.712;2022-09-02T12:55:06;12.85;;;11.57;;
23370;SDS011;11858;51.056;3.712;2022-09-02T12:57:48;13.05;;;12.20;;
23370;SDS011;11858;51.056;3.712;2022-09-02T13:00:24;12.90;;;11.90;;
23370;SDS011;11858;51.056;3.712;2022-09-02T13:05:53;13.05;;;11.80;;
23370;SDS011;11858;51.056;3.712;2022-09-02T13:11:45;12.40;;;11.10;;
23370;SDS011;11858;51.056;3.712;2022-09-02T13:17:43;11.98;;;11.18;;
23370;SDS011;11858;51.056;3.712;2022-09-02T13:29:09;12.98;;;11.80;;
23370;SDS011;11858;51.056;3.712;2022-09-02T13:32:11;13.10;;;11.85;;
23370;SDS011;11858;51.056;3.712;2022-09-02T13:34:43;12.65;;;11.65;;
23370;SDS011;11858;51.056;3.712;2022-09-02T13:37:31;13.05;;;12.00;;
23370;SDS011;11858;51.056;3.712;2022-09-02T13:42:31;11.98;;;10.98;;
23370;SDS011;11858;51.056;3.712;2022-09-02T13:47:53;13.00;;;11.80;;
23370;SDS011;11858;51.056;3.712;2022-09-02T13:50:25;12.38;;;11.18;;
23370;SDS011;11858;51.056;3.712;2022-09-02T13:52:59;12.02;;;11.23;;
23370;SDS011;11858;51.056;3.712;2022-09-02T13:55:29;12.30;;;11.25;;
23370;SDS011;11858;51.056;3.712;2022-09-02T13:58:05;12.70;;;11.57;;
23370;SDS011;11858;51.056;3.712;2022-09-02T14:00:46;12.98;;;11.75;;
23370;SDS011;11858;51.056;3.712;2022-09-02T14:03:14;13.60;;;12.65;;
23370;SDS011;11858;51.056;3.712;2022-09-02T14:05:43;14.15;;;13.02;;
23370;SDS011;11858;51.056;3.712;2022-09-02T14:08:19;14.23;;;13.23;;
23370;SDS011;11858;51.056;3.712;2022-09-02T14:10:51;14.25;;;12.88;;
23370;SDS011;11858;51.056;3.712;2022-09-02T14:13:18;14.32;;;13.23;;
23370;SDS011;11858;51.056;3.712;2022-09-02T14:15:46;14.43;;;13.18;;
23370;SDS011;11858;51.056;3.712;2022-09-02T14:23:47;14.30;;;13.10;;
23370;SDS011;11858;51.056;3.712;2022-09-02T14:26:19;13.27;;;12.38;;
23370;SDS011;11858;51.056;3.712;2022-09-02T14:28:51;22.45;;;13.23;;
23370;SDS011;11858;51.056;3.712;2022-09-02T14:31:22;14.30;;;13.30;;
23370;SDS011;11858;51.056;3.712;2022-09-02T14:33:54;13.57;;;12.48;;
23370;SDS011;11858;51.056;3.712;2022-09-02T14:38:54;13.80;;;12.75;;
23370;SDS011;11858;51.056;3.712;2022-09-02T14:41:28;14.38;;;13.18;;
23370;SDS011;11858;51.056;3.712;2022-09-02T14:47:06;20.17;;;14.48;;
23370;SDS011;11858;51.056;3.712;2022-09-02T14:49:44;16.70;;;14.27;;
23370;SDS011;11858;51.056;3.712;2022-09-02T14:52:20;14.65;;;13.43;;
23370;SDS011;11858;51.056;3.712;2022-09-02T14:54:53;26.75;;;15.55;;
23370;SDS011;11858;51.056;3.712;2022-09-02T14:59:58;15.27;;;14.00;;
23370;SDS011;11858;51.056;3.712;2022-09-02T15:02:43;14.68;;;13.23;;
23370;SDS011;11858;51.056;3.712;2022-09-02T15:05:12;15.23;;;14.02;;
23370;SDS011;11858;51.056;3.712;2022-09-02T15:07:38;15.35;;;13.88;;
23370;SDS011;11858;51.056;3.712;2022-09-02T15:10:05;14.20;;;13.20;;
23370;SDS011;11858;51.056;3.712;2022-09-02T15:12:45;14.52;;;13.43;;
23370;SDS011;11858;51.056;3.712;2022-09-02T15:15:16;14.52;;;13.40;;
23370;SDS011;11858;51.056;3.712;2022-09-02T15:17:42;14.82;;;13.70;;
23370;SDS011;11858;51.056;3.712;2022-09-02T15:20:09;14.23;;;13.18;;
23370;SDS011;11858;51.056;3.712;2022-09-02T15:22:36;13.35;;;12.25;;
23370;SDS011;11858;51.056;3.712;2022-09-02T15:25:04;14.65;;;13.45;;
23370;SDS011;11858;51.056;3.712;2022-09-02T15:27:32;13.80;;;12.80;;
23370;SDS011;11858;51.056;3.712;2022-09-02T15:30:03;14.88;;;13.45;;
23370;SDS011;11858;51.056;3.712;2022-09-02T15:32:30;15.10;;;13.82;;
23370;SDS011;11858;51.056;3.712;2022-09-02T15:35:02;16.25;;;15.07;;
23370;SDS011;11858;51.056;3.712;2022-09-02T15:37:29;16.25;;;14.60;;
23370;SDS011;11858;51.056;3.712;2022-09-02T15:39:55;14.90;;;13.75;;
23370;SDS011;11858;51.056;3.712;2022-09-02T15:42:22;15.90;;;14.48;;
23370;SDS011;11858;51.056;3.712;2022-09-02T15:44:47;15.20;;;14.05;;
23370;SDS011;11858;51.056;3.712;2022-09-02T15:47:15;18.48;;;13.93;;
23370;SDS011;11858;51.056;3.712;2022-09-02T15:49:40;16.38;;;14.85;;
23370;SDS011;11858;51.056;3.712;2022-09-02T15:52:07;16.77;;;14.32;;
23370;SDS011;11858;51.056;3.712;2022-09-02T15:54:33;16.50;;;15.00;;
23370;SDS011;11858;51.056;3.712;2022-09-02T15:57:00;16.90;;;15.57;;
23370;SDS011;11858;51.056;3.712;2022-09-02T15:59:32;16.48;;;14.75;;
23370;SDS011;11858;51.056;3.712;2022-09-02T16:01:57;15.48;;;14.13;;
23370;SDS011;11858;51.056;3.712;2022-09-02T16:04:24;14.90;;;13.80;;
23370;SDS011;11858;51.056;3.712;2022-09-02T16:06:52;15.60;;;14.50;;
23370;SDS011;11858;51.056;3.712;2022-09-02T16:09:17;15.27;;;14.05;;
23370;SDS011;11858;51.056;3.712;2022-09-02T16:11:48;16.27;;;14.75;;
23370;SDS011;11858;51.056;3.712;2022-09-02T16:14:16;17.60;;;13.93;;
23370;SDS011;11858;51.056;3.712;2022-09-02T16:16:43;14.27;;;13.05;;
23370;SDS011;11858;51.056;3.712;2022-09-02T16:19:09;15.13;;;14.05;;
23370;SDS011;11858;51.056;3.712;2022-09-02T16:21:38;15.52;;;13.85;;
23370;SDS011;11858;51.056;3.712;2022-09-02T16:24:05;15.05;;;13.35;;
23370;SDS011;11858;51.056;3.712;2022-09-02T16:26:34;14.75;;;13.50;;
23370;SDS011;11858;51.056;3.712;2022-09-02T16:29:04;14.82;;;13.65;;
23370;SDS011;11858;51.056;3.712;2022-09-02T16:31:32;16.13;;;14.50;;
23370;SDS011;11858;51.056;3.712;2022-09-02T16:36:30;16.40;;;14.77;;
23370;SDS011;11858;51.056;3.712;2022-09-02T16:38:57;15.55;;;14.38;;
23370;SDS011;11858;51.056;3.712;2022-09-02T16:41:32;17.25;;;14.50;;
23370;SDS011;11858;51.056;3.712;2022-09-02T16:44:00;15.73;;;14.57;;
23370;SDS011;11858;51.056;3.712;2022-09-02T16:46:27;17.30;;;15.70;;
23370;SDS011;11858;51.056;3.712;2022-09-02T16:48:54;16.52;;;15.20;;
23370;SDS011;11858;51.056;3.712;2022-09-02T16:51:21;15.93;;;14.57;;
23370;SDS011;11858;51.056;3.712;2022-09-02T16:53:51;16.30;;;15.00;;
23370;SDS011;11858;51.056;3.712;2022-09-02T16:56:21;16.00;;;14.93;;
23370;SDS011;11858;51.056;3.712;2022-09-02T16:58:48;17.27;;;15.75;;
23370;SDS011;11858;51.056;3.712;2022-09-02T17:01:16;16.80;;;15.40;;
23370;SDS011;11858;51.056;3.712;2022-09-02T17:03:43;17.88;;;16.33;;
23370;SDS011;11858;51.056;3.712;2022-09-02T17:06:10;17.48;;;15.73;;
23370;SDS011;11858;51.056;3.712;2022-09-02T17:08:38;17.02;;;15.48;;
23370;SDS011;11858;51.056;3.712;2022-09-02T17:11:25;19.48;;;15.05;;
23370;SDS011;11858;51.056;3.712;2022-09-02T17:14:12;17.13;;;15.82;;
23370;SDS011;11858;51.056;3.712;2022-09-02T17:16:40;17.25;;;15.68;;
23370;SDS011;11858;51.056;3.712;2022-09-02T17:19:08;18.08;;;16.23;;
23370;SDS011;11858;51.056;3.712;2022-09-02T17:24:03;17.50;;;15.68;;
23370;SDS011;11858;51.056;3.712;2022-09-02T17:26:32;20.90;;;16.88;;
23370;SDS011;11858;51.056;3.712;2022-09-02T17:29:00;18.50;;;16.48;;